Time;durP1;ratioP1;P1;durP2;ratioP2;P2;SDS_P1;SDS_P2;PMS_P1;PMS_P2;Temp;Humidity;BMP_temperature;BMP_pressure;BME280_temperature;BME280_humidity;BME280_pressure;Samples;Min_cycle;Max_cycle;Signal;HPM_P1;HPM_P2
2022/05/16 00:01:56;;;;;;;;;;;;;;;16.18;53.93;96461.31;4895072;29;19952;-70
2022/05/16 00:04:25;;;;;;;;;;;;;;;16.16;54.42;96456.28;4883609;29;19966;-70
2022/05/16 00:06:51;;;;;;;;;;;;;;;16.14;54.70;96465.53;4890952;29;19954;-70
2022/05/16 00:09:17;;;;;;;;;;;;;;;16.12;54.38;96452.53;4895499;29;19964;-70
2022/05/16 00:11:43;;;;;;;;;;;;;;;16.12;54.29;96446.47;4884604;29;19963;-71
2022/05/16 00:14:08;;;;;;;;;;;;;;;16.10;54.36;96445.91;4889350;29;19958;-71
2022/05/16 00:16:34;;;;;;;;;;;;;;;16.08;54.71;96442.72;4890116;29;19958;-71
2022/05/16 00:19:00;;;;;;;;;;;;;;;16.07;54.57;96439.28;4880094;29;20015;-71
2022/05/16 00:21:26;;;;;;;;;;;;;;;16.06;55.24;96445.59;4893870;29;19995;-71
2022/05/16 00:23:52;;;;;;;;;;;;;;;16.03;54.99;96449.56;4890144;29;20379;-70
2022/05/16 00:26:18;;;;;;;;;;;;;;;16.01;55.13;96443.72;4883891;29;20374;-71
2022/05/16 00:28:44;;;;;;;;;;;;;;;16.00;55.33;96447.44;4894262;29;19963;-71
2022/05/16 00:31:10;;;;;;;;;;;;;;;15.99;55.60;96432.59;4882412;29;19966;-70
2022/05/16 00:33:35;;;;;;;;;;;;;;;15.96;55.42;96429.69;4893125;29;20399;-70
2022/05/16 00:36:01;;;;;;;;;;;;;;;15.94;56.01;96432.56;4891326;29;20082;-71
2022/05/16 00:38:27;;;;;;;;;;;;;;;15.92;54.78;96418.00;4890075;29;19959;-71
2022/05/16 00:40:56;;;;;;;;;;;;;;;15.92;54.93;96423.31;4880618;29;20334;-71
2022/05/16 00:43:39;;;;;;;;;;;;;;;15.89;55.26;96429.88;4893165;29;19957;-70
2022/05/16 00:46:05;;;;;;;;;;;;;;;15.88;55.59;96428.28;4894787;29;19964;-70
2022/05/16 00:48:31;;;;;;;;;;;;;;;15.85;55.56;96420.84;4890203;29;19968;-70
2022/05/16 00:50:58;;;;;;;;;;;;;;;15.85;55.76;96423.47;4890091;29;20120;-71
2022/05/16 00:53:24;;;;;;;;;;;;;;;15.83;55.85;96421.13;4885892;29;19964;-70
2022/05/16 00:55:49;;;;;;;;;;;;;;;15.81;55.84;96415.28;4872837;29;20014;-70
2022/05/16 00:58:17;;;;;;;;;;;;;;;15.80;55.71;96418.16;4894788;29;20016;-71
2022/05/16 01:00:43;;;;;;;;;;;;;;;15.79;55.76;96411.28;4893943;29;19965;-70
2022/05/16 01:05:56;;;;;;;;;;;;;;;15.75;56.40;96408.34;4891636;29;19951;-70
2022/05/16 01:08:24;;;;;;;;;;;;;;;15.75;56.71;96412.84;4892476;29;19954;-70
2022/05/16 01:10:51;;;;;;;;;;;;;;;15.72;56.70;96400.91;4885648;29;20416;-70
2022/05/16 01:13:17;;;;;;;;;;;;;;;15.71;56.75;96407.22;4890884;29;19960;-70
2022/05/16 01:15:45;;;;;;;;;;;;;;;15.70;56.76;96408.25;4882475;29;19986;-70
2022/05/16 01:18:12;;;;;;;;;;;;;;;15.70;56.85;96413.53;4889839;29;20027;-70
2022/05/16 01:20:41;;;;;;;;;;;;;;;15.69;57.27;96411.97;4894827;29;19974;-71
2022/05/16 01:23:08;;;;;;;;;;;;;;;15.67;57.16;96415.91;4887625;29;19964;-70
2022/05/16 01:25:34;;;;;;;;;;;;;;;15.66;57.32;96409.81;4886004;29;20423;-70
2022/05/16 01:28:05;;;;;;;;;;;;;;;15.66;57.60;96407.16;4891325;29;19967;-70
2022/05/16 01:30:34;;;;;;;;;;;;;;;15.66;57.52;96411.66;4892115;29;19951;-72
2022/05/16 01:33:00;;;;;;;;;;;;;;;15.65;57.63;96413.50;4876313;29;19950;-70
2022/05/16 01:35:28;;;;;;;;;;;;;;;15.64;58.11;96406.63;4893390;29;20381;-71
2022/05/16 01:40:38;;;;;;;;;;;;;;;15.61;58.13;96394.72;4883906;29;19967;-71
2022/05/16 01:43:05;;;;;;;;;;;;;;;15.58;58.06;96381.19;4876299;29;20339;-70
2022/05/16 01:45:31;;;;;;;;;;;;;;;15.53;58.36;96389.88;4889008;29;19959;-70
2022/05/16 01:47:57;;;;;;;;;;;;;;;15.50;58.60;96397.53;4889348;29;19958;-70
2022/05/16 01:50:23;;;;;;;;;;;;;;;15.47;57.55;96393.50;4884662;29;20068;-70
2022/05/16 01:52:49;;;;;;;;;;;;;;;15.40;58.93;96391.06;4894814;29;20002;-70
2022/05/16 01:55:15;;;;;;;;;;;;;;;15.38;58.85;96387.09;4879257;29;19976;-70
2022/05/16 01:57:41;;;;;;;;;;;;;;;15.32;60.06;96399.44;4891701;29;19953;-70
2022/05/16 02:00:11;;;;;;;;;;;;;;;15.27;59.79;96394.13;4888306;29;20011;-71
2022/05/16 02:02:41;;;;;;;;;;;;;;;15.22;58.76;96394.88;4887749;29;19962;-70
2022/05/16 02:05:07;;;;;;;;;;;;;;;15.21;58.86;96427.59;4887724;29;20335;-70
2022/05/16 02:07:33;;;;;;;;;;;;;;;15.18;59.59;96401.69;4888382;29;19954;-70
2022/05/16 02:09:59;;;;;;;;;;;;;;;15.14;58.92;96410.34;4892643;29;20007;-70
2022/05/16 02:12:25;;;;;;;;;;;;;;;15.10;59.02;96420.63;4892050;29;20049;-70
2022/05/16 02:14:51;;;;;;;;;;;;;;;15.07;59.11;96417.66;4883453;29;20393;-70
2022/05/16 02:17:16;;;;;;;;;;;;;;;15.03;59.79;96427.91;4891734;29;20483;-70
2022/05/16 02:19:42;;;;;;;;;;;;;;;15.01;59.67;96417.63;4890917;29;20400;-70
2022/05/16 02:24:52;;;;;;;;;;;;;;;15.09;60.17;96420.88;4879862;29;19963;-70
2022/05/16 02:27:19;;;;;;;;;;;;;;;15.10;59.42;96417.16;4879345;29;20415;-70
2022/05/16 02:29:45;;;;;;;;;;;;;;;15.13;59.77;96416.69;4880127;29;20338;-70
2022/05/16 02:32:12;;;;;;;;;;;;;;;15.14;59.63;96419.09;4879593;29;19959;-70
2022/05/16 02:34:38;;;;;;;;;;;;;;;15.16;59.98;96424.91;4878446;29;20026;-70
2022/05/16 02:37:05;;;;;;;;;;;;;;;15.19;60.05;96428.91;4879513;29;20346;-70
2022/05/16 02:39:31;;;;;;;;;;;;;;;15.20;59.99;96423.38;4879557;29;19952;-71
2022/05/16 02:41:57;;;;;;;;;;;;;;;15.22;60.08;96426.56;4879278;29;19972;-70
2022/05/16 02:44:23;;;;;;;;;;;;;;;15.24;60.76;96439.53;4879539;29;20017;-70
2022/05/16 02:46:49;;;;;;;;;;;;;;;15.24;59.89;96428.94;4879160;29;19950;-70
2022/05/16 02:49:15;;;;;;;;;;;;;;;15.26;59.90;96426.84;4873852;29;19961;-71
2022/05/16 02:51:41;;;;;;;;;;;;;;;15.27;59.71;96422.41;4880831;29;19960;-70
2022/05/16 02:54:07;;;;;;;;;;;;;;;15.26;59.87;96431.34;4882807;29;20000;-70
2022/05/16 02:56:34;;;;;;;;;;;;;;;15.22;59.69;96423.13;4883248;29;19960;-70
2022/05/16 02:58:59;;;;;;;;;;;;;;;15.20;59.82;96431.31;4882849;29;20426;-70
2022/05/16 03:01:26;;;;;;;;;;;;;;;15.20;60.02;96428.66;4881681;29;19982;-70
2022/05/16 03:03:51;;;;;;;;;;;;;;;15.21;60.54;96432.88;4886930;29;20356;-70
2022/05/16 03:06:18;;;;;;;;;;;;;;;15.21;60.54;96430.25;4881758;29;19967;-71
2022/05/16 03:08:44;;;;;;;;;;;;;;;15.21;60.49;96429.47;4878176;29;20324;-71
2022/05/16 03:11:10;;;;;;;;;;;;;;;15.22;60.36;96434.50;4882536;29;19953;-70
2022/05/16 03:13:36;;;;;;;;;;;;;;;15.22;60.49;96441.59;4882377;29;19958;-71
2022/05/16 03:16:02;;;;;;;;;;;;;;;15.21;60.64;96437.38;4882691;29;20341;-70
2022/05/16 03:18:29;;;;;;;;;;;;;;;15.21;61.21;96434.75;4882197;29;19970;-70
2022/05/16 03:20:54;;;;;;;;;;;;;;;15.22;61.37;96431.88;4881293;29;19991;-70
2022/05/16 03:23:21;;;;;;;;;;;;;;;15.21;61.43;96434.75;4878074;29;19970;-71
2022/05/16 03:25:47;;;;;;;;;;;;;;;15.23;60.95;96440.56;4872737;29;19971;-70
2022/05/16 03:28:13;;;;;;;;;;;;;;;15.23;60.80;96443.22;4882252;29;19962;-70
2022/05/16 03:30:39;;;;;;;;;;;;;;;15.24;61.19;96444.81;4882181;29;20473;-70
2022/05/16 03:33:05;;;;;;;;;;;;;;;15.24;61.38;96442.16;4882193;29;20423;-70
2022/05/16 03:35:31;;;;;;;;;;;;;;;15.26;61.33;96444.56;4882289;29;19964;-70
2022/05/16 03:37:57;;;;;;;;;;;;;;;15.27;61.31;96440.88;4880368;29;19949;-71
2022/05/16 03:43:16;;;;;;;;;;;;;;;15.31;61.54;96449.91;4882084;29;19970;-70
2022/05/16 03:45:43;;;;;;;;;;;;;;;15.30;61.48;96443.81;4882306;29;19957;-70
2022/05/16 03:48:09;;;;;;;;;;;;;;;15.31;61.33;96445.44;4882056;29;20333;-70
2022/05/16 03:50:35;;;;;;;;;;;;;;;15.33;61.33;96445.16;4882183;29;19977;-71
2022/05/16 03:53:01;;;;;;;;;;;;;;;15.35;61.75;96456.28;4876824;29;20369;-70
2022/05/16 03:55:28;;;;;;;;;;;;;;;15.34;62.07;96460.78;4881671;29;19955;-70
2022/05/16 03:57:54;;;;;;;;;;;;;;;15.36;61.79;96455.25;4881836;29;19958;-70
2022/05/16 04:00:20;;;;;;;;;;;;;;;15.38;61.84;96461.09;4881082;29;19970;-70
2022/05/16 04:02:46;;;;;;;;;;;;;;;15.39;61.40;96458.19;4881658;29;19961;-70
2022/05/16 04:05:18;;;;;;;;;;;;;;;15.40;61.74;96459.00;4881546;29;19970;-70
2022/05/16 04:07:44;;;;;;;;;;;;;;;15.42;62.45;96478.84;4880759;29;19959;-70
2022/05/16 04:10:10;;;;;;;;;;;;;;;15.43;61.83;96469.88;4881141;29;19966;-70
2022/05/16 04:12:36;;;;;;;;;;;;;;;15.45;61.67;96468.81;4880770;29;20065;-71
2022/05/16 04:15:03;;;;;;;;;;;;;;;15.48;61.86;96473.63;4881471;29;19961;-70
2022/05/16 04:17:29;;;;;;;;;;;;;;;15.48;62.23;96469.13;4880823;29;19966;-71
2022/05/16 04:19:55;;;;;;;;;;;;;;;15.49;62.60;96473.34;4880617;29;19964;-70
2022/05/16 04:22:21;;;;;;;;;;;;;;;15.52;62.39;96474.72;4881441;29;19989;-70
2022/05/16 04:24:47;;;;;;;;;;;;;;;15.54;62.30;96470.78;4881058;29;19958;-70
2022/05/16 04:27:13;;;;;;;;;;;;;;;15.57;62.56;96474.75;4881116;29;19970;-70
2022/05/16 04:29:39;;;;;;;;;;;;;;;15.60;62.60;96467.13;4881339;29;19995;-70
2022/05/16 04:32:05;;;;;;;;;;;;;;;15.63;62.92;96466.63;4881121;29;20413;-70
2022/05/16 04:34:31;;;;;;;;;;;;;;;15.67;62.54;96468.78;4880130;29;19961;-70
2022/05/16 04:36:57;;;;;;;;;;;;;;;15.68;63.06;96473.00;4881072;29;19957;-70
2022/05/16 04:39:23;;;;;;;;;;;;;;;15.70;63.34;96477.00;4880951;29;20071;-70
2022/05/16 04:44:38;;;;;;;;;;;;;;;15.75;63.46;96471.81;4871986;29;20328;-70
2022/05/16 04:47:05;;;;;;;;;;;;;;;15.76;63.91;96465.47;4880128;29;19958;-71
2022/05/16 04:49:31;;;;;;;;;;;;;;;15.77;64.35;96463.59;4880796;29;19963;-70
2022/05/16 04:51:58;;;;;;;;;;;;;;;15.79;64.65;96472.09;4880594;29;19956;-70
2022/05/16 04:54:24;;;;;;;;;;;;;;;15.80;65.40;96471.84;4880810;29;19967;-70
2022/05/16 04:56:51;;;;;;;;;;;;;;;15.82;64.57;96471.59;4880567;29;19961;-70
2022/05/16 04:59:17;;;;;;;;;;;;;;;15.85;64.87;96471.09;4880624;29;19964;-71
2022/05/16 05:01:43;;;;;;;;;;;;;;;15.89;64.59;96471.38;4873125;29;20434;-71
2022/05/16 05:04:09;;;;;;;;;;;;;;;15.94;65.69;96469.59;4879374;29;19965;-70
2022/05/16 05:06:35;;;;;;;;;;;;;;;15.96;64.61;96461.41;4879709;29;19970;-71
2022/05/16 05:09:01;;;;;;;;;;;;;;;16.00;63.75;96455.38;4879906;29;19963;-71
2022/05/16 05:16:56;;;;;;;;;;;;;;;16.13;64.54;96461.28;4880275;29;20401;-70
2022/05/16 05:19:22;;;;;;;;;;;;;;;16.18;64.66;96461.31;4880464;29;20010;-70
2022/05/16 05:21:48;;;;;;;;;;;;;;;16.20;64.36;96457.38;4879834;29;19980;-71
2022/05/16 05:24:14;;;;;;;;;;;;;;;16.25;64.22;96456.59;4876309;29;19973;-71
2022/05/16 05:26:42;;;;;;;;;;;;;;;16.29;65.11;96473.56;4876702;29;19968;-70
2022/05/16 05:29:08;;;;;;;;;;;;;;;16.34;64.92;96486.06;4877469;29;20438;-70
2022/05/16 05:31:34;;;;;;;;;;;;;;;16.36;64.64;96474.16;4879901;29;19963;-70
2022/05/16 05:34:01;;;;;;;;;;;;;;;16.38;64.39;96479.22;4879803;29;19986;-70
2022/05/16 05:36:27;;;;;;;;;;;;;;;16.41;64.51;96486.63;4880135;29;19968;-71
2022/05/16 05:38:53;;;;;;;;;;;;;;;16.42;64.28;96489.03;4879874;29;19959;-70
2022/05/16 05:41:20;;;;;;;;;;;;;;;16.47;64.13;96501.50;4879829;29;19974;-71
2022/05/16 05:43:46;;;;;;;;;;;;;;;16.50;64.24;96508.91;4872737;29;19958;-70
2022/05/16 05:46:12;;;;;;;;;;;;;;;16.54;64.09;96514.50;4875282;29;19989;-70
2022/05/16 05:48:38;;;;;;;;;;;;;;;16.59;63.88;96512.72;4880013;29;20054;-70
2022/05/16 05:51:04;;;;;;;;;;;;;;;16.62;63.01;96508.75;4880030;29;19971;-71
2022/05/16 05:53:30;;;;;;;;;;;;;;;16.59;63.06;96523.31;4879818;29;19975;-71
2022/05/16 05:55:56;;;;;;;;;;;;;;;16.60;63.50;96526.75;4879186;29;19960;-70
2022/05/16 05:58:22;;;;;;;;;;;;;;;16.62;64.02;96516.69;4879928;29;20035;-70
2022/05/16 06:00:48;;;;;;;;;;;;;;;16.62;63.41;96525.44;4879801;29;19964;-71
2022/05/16 06:03:14;;;;;;;;;;;;;;;16.65;63.15;96526.75;4875998;29;20432;-71
2022/05/16 06:05:40;;;;;;;;;;;;;;;16.68;63.96;96531.56;4864730;29;20409;-71
2022/05/16 06:08:06;;;;;;;;;;;;;;;16.88;63.69;96533.56;4878458;29;20019;-70
2022/05/16 06:10:32;;;;;;;;;;;;;;;17.25;62.41;96512.31;4879504;29;19959;-71
2022/05/16 06:13:00;;;;;;;;;;;;;;;17.54;61.77;96516.41;4880183;29;20066;-71
2022/05/16 06:15:26;;;;;;;;;;;;;;;17.85;61.16;96518.09;4879666;29;19969;-71
2022/05/16 06:17:51;;;;;;;;;;;;;;;18.12;59.82;96503.81;4879724;29;20402;-71
2022/05/16 06:20:17;;;;;;;;;;;;;;;18.48;59.52;96503.81;4879507;29;19970;-71
2022/05/16 06:22:43;;;;;;;;;;;;;;;18.82;58.15;96500.59;4882944;29;19984;-71
2022/05/16 06:25:32;;;;;;;;;;;;;;;19.06;57.07;96495.47;4893751;29;20051;-71
2022/05/16 06:28:03;;;;;;;;;;;;;;;19.32;57.83;96504.19;4893551;29;19965;-71
2022/05/16 06:30:29;;;;;;;;;;;;;;;19.58;55.97;96498.75;4870165;29;19983;-71
2022/05/16 06:32:55;;;;;;;;;;;;;;;19.80;55.99;96499.19;4887589;29;19955;-71
2022/05/16 06:35:21;;;;;;;;;;;;;;;19.87;55.04;96489.00;4895152;29;19964;-71
2022/05/16 06:37:47;;;;;;;;;;;;;;;19.77;55.78;96498.94;4891670;29;19971;-71
2022/05/16 06:40:14;;;;;;;;;;;;;;;19.77;56.26;96505.03;4892616;29;20410;-71
2022/05/16 06:42:40;;;;;;;;;;;;;;;19.93;56.93;96510.25;4892438;29;19970;-71
2022/05/16 06:45:07;;;;;;;;;;;;;;;20.03;56.86;96513.69;4895869;29;19966;-71
2022/05/16 06:47:33;;;;;;;;;;;;;;;20.06;56.21;96513.09;4889130;29;19965;-71
2022/05/16 06:49:59;;;;;;;;;;;;;;;19.94;56.28;96517.19;4893104;29;19970;-71
2022/05/16 06:52:25;;;;;;;;;;;;;;;19.79;56.78;96526.84;4895358;29;19960;-71
2022/05/16 06:54:51;;;;;;;;;;;;;;;19.66;56.71;96530.09;4878119;29;20037;-71
2022/05/16 06:57:17;;;;;;;;;;;;;;;19.62;56.74;96523.72;4888987;29;19971;-71
2022/05/16 06:59:43;;;;;;;;;;;;;;;19.57;57.03;96527.22;4892817;29;20378;-71
2022/05/16 07:02:09;;;;;;;;;;;;;;;19.55;57.12;96537.31;4891473;29;19972;-71
2022/05/16 07:04:36;;;;;;;;;;;;;;;19.56;57.64;96536.25;4883698;29;19964;-71
2022/05/16 07:07:08;;;;;;;;;;;;;;;19.58;58.18;96543.97;4898477;29;19970;-71
2022/05/16 07:09:34;;;;;;;;;;;;;;;19.63;59.09;96550.06;4890296;29;19951;-71
2022/05/16 07:12:00;;;;;;;;;;;;;;;19.70;58.97;96555.13;4889089;29;19956;-71
2022/05/16 07:14:26;;;;;;;;;;;;;;;19.90;59.13;96551.53;4895881;29;19966;-71
2022/05/16 07:16:51;;;;;;;;;;;;;;;20.11;58.73;96549.53;4891942;29;19988;-71
2022/05/16 07:19:17;;;;;;;;;;;;;;;20.10;58.11;96541.84;4872705;29;19967;-71
2022/05/16 07:21:43;;;;;;;;;;;;;;;20.06;58.58;96552.25;4886942;29;19982;-71
2022/05/16 07:24:09;;;;;;;;;;;;;;;20.04;58.26;96555.19;4895797;29;19966;-71
2022/05/16 07:29:19;;;;;;;;;;;;;;;19.99;59.16;96565.88;4891356;29;19965;-71
2022/05/16 07:31:46;;;;;;;;;;;;;;;19.97;60.01;96576.00;4885667;29;20049;-71
2022/05/16 07:34:12;;;;;;;;;;;;;;;19.93;59.74;96572.28;4891444;29;19956;-71
2022/05/16 07:36:38;;;;;;;;;;;;;;;19.91;61.18;96587.75;4882320;29;19959;-71
2022/05/16 07:39:04;;;;;;;;;;;;;;;19.82;61.63;96584.88;4879732;29;20376;-71
2022/05/16 07:41:31;;;;;;;;;;;;;;;19.76;62.38;96585.94;4889980;29;19979;-71
2022/05/16 07:43:58;;;;;;;;;;;;;;;19.71;64.38;96601.94;4886461;29;19964;-71
2022/05/16 07:46:24;;;;;;;;;;;;;;;19.70;62.63;96587.03;4888225;29;19954;-71
2022/05/16 07:48:50;;;;;;;;;;;;;;;19.71;63.44;96601.13;4896566;29;19982;-71
2022/05/16 07:51:16;;;;;;;;;;;;;;;19.78;66.14;96615.75;4878645;29;20488;-71
2022/05/16 07:53:42;;;;;;;;;;;;;;;19.94;65.48;96605.03;4885277;29;19961;-71
2022/05/16 07:56:09;;;;;;;;;;;;;;;20.03;63.32;96587.41;4879136;29;19961;-71
2022/05/16 07:58:35;;;;;;;;;;;;;;;20.09;63.78;96588.97;4891846;29;20443;-71
2022/05/16 08:01:01;;;;;;;;;;;;;;;20.16;63.35;96593.97;4895251;29;19962;-71
2022/05/16 08:03:28;;;;;;;;;;;;;;;20.21;63.04;96593.97;4885695;29;19970;-71
2022/05/16 08:05:55;;;;;;;;;;;;;;;20.44;62.90;96576.50;4889531;29;19959;-71
2022/05/16 08:11:06;;;;;;;;;;;;;;;21.28;61.20;96579.75;4890097;29;19963;-71
2022/05/16 08:13:32;;;;;;;;;;;;;;;21.66;61.39;96573.78;4891196;29;20343;-71
2022/05/16 08:15:58;;;;;;;;;;;;;;;21.93;59.34;96559.03;4891815;29;20438;-71
2022/05/16 08:18:24;;;;;;;;;;;;;;;22.20;57.46;96540.47;4891048;29;19964;-71
2022/05/16 08:20:51;;;;;;;;;;;;;;;22.45;58.13;96546.53;4889661;29;19984;-71
2022/05/16 08:23:19;;;;;;;;;;;;;;;22.67;54.58;96521.84;4875563;29;20372;-71
2022/05/16 08:25:45;;;;;;;;;;;;;;;22.84;54.45;96519.38;4892895;29;19954;-71
2022/05/16 08:28:11;;;;;;;;;;;;;;;23.05;54.90;96530.53;4888620;29;19958;-71
2022/05/16 08:30:37;;;;;;;;;;;;;;;23.17;53.02;96511.34;4888281;29;19961;-71
2022/05/16 08:33:04;;;;;;;;;;;;;;;23.34;51.83;96516.09;4875923;29;19969;-71
2022/05/16 08:35:41;;;;;;;;;;;;;;;23.62;51.73;96518.72;4890398;29;19960;-71
2022/05/16 08:40:56;;;;;;;;;;;;;;;23.93;49.08;96526.13;4892596;29;20435;-71
2022/05/16 08:43:38;;;;;;;;;;;;;;;23.98;48.15;96532.19;4890753;29;19971;-71
2022/05/16 08:46:09;;;;;;;;;;;;;;;24.14;48.54;96551.38;4884020;29;19957;-71
2022/05/16 08:48:37;;;;;;;;;;;;;;;24.16;48.13;96551.06;4890456;29;19968;-71
2022/05/16 08:51:13;;;;;;;;;;;;;;;24.17;47.28;96549.97;4891254;29;19969;-71
2022/05/16 08:53:43;;;;;;;;;;;;;;;24.30;45.78;96549.16;4890769;29;19959;-71
2022/05/16 08:56:10;;;;;;;;;;;;;;;24.29;45.40;96556.38;4882365;29;19967;-71
2022/05/16 08:58:42;;;;;;;;;;;;;;;24.33;45.67;96566.50;4881894;29;19977;-71
2022/05/16 09:01:13;;;;;;;;;;;;;;;24.40;45.57;96566.84;4886882;29;19962;-71
2022/05/16 09:03:48;;;;;;;;;;;;;;;24.31;44.32;96561.44;4887332;29;20420;-71
2022/05/16 09:06:18;;;;;;;;;;;;;;;24.18;45.14;96571.09;4888376;29;20315;-71
2022/05/16 09:08:49;;;;;;;;;;;;;;;24.07;46.13;96583.16;4886516;29;19962;-72
2022/05/16 09:11:38;;;;;;;;;;;;;;;23.96;45.68;96592.50;4893630;29;20361;-72
2022/05/16 09:14:06;;;;;;;;;;;;;;;23.75;45.63;96584.88;4889027;29;20423;-71
2022/05/16 09:16:32;;;;;;;;;;;;;;;23.57;45.76;96599.16;4870287;29;19967;-71
2022/05/16 09:18:58;;;;;;;;;;;;;;;23.40;46.87;96605.09;4890357;29;20011;-71
2022/05/16 09:21:36;;;;;;;;;;;;;;;23.24;46.73;96613.38;4892589;29;19980;-71
2022/05/16 09:24:11;;;;;;;;;;;;;;;23.17;46.95;96618.34;4875955;29;20419;-71
2022/05/16 09:26:40;;;;;;;;;;;;;;;23.07;46.99;96621.97;4890233;29;19963;-71
2022/05/16 09:29:16;;;;;;;;;;;;;;;23.08;47.96;96626.25;4885545;29;20263;-71
2022/05/16 09:31:44;;;;;;;;;;;;;;;23.15;46.85;96625.09;4887705;29;20331;-71
2022/05/16 09:34:11;;;;;;;;;;;;;;;23.29;46.70;96621.34;4893414;29;19958;-71
2022/05/16 09:36:38;;;;;;;;;;;;;;;23.50;47.33;96629.78;4880545;29;19974;-72
2022/05/16 09:39:05;;;;;;;;;;;;;;;23.82;45.93;96622.00;4888509;29;19958;-71
2022/05/16 09:41:34;;;;;;;;;;;;;;;24.12;44.21;96604.47;4893835;29;20406;-71
2022/05/16 09:44:06;;;;;;;;;;;;;;;24.40;45.57;96610.56;4885891;29;19960;-71
2022/05/16 09:46:32;;;;;;;;;;;;;;;24.70;45.18;96608.28;4889089;29;19957;-71
2022/05/16 09:49:19;;;;;;;;;;;;;;;24.95;43.93;96614.09;4882788;29;19961;-71
2022/05/16 09:51:55;;;;;;;;;;;;;;;25.00;44.17;96616.69;4894979;29;19964;-71
2022/05/16 09:54:24;;;;;;;;;;;;;;;24.83;44.04;96610.09;4875011;29;20509;-71
2022/05/16 09:57:08;;;;;;;;;;;;;;;24.65;44.81;96611.06;4888994;29;19966;-71
2022/05/16 09:59:38;;;;;;;;;;;;;;;24.49;44.95;96614.13;4890635;29;19958;-71
2022/05/16 10:02:22;;;;;;;;;;;;;;;24.36;44.36;96614.94;4885307;29;20009;-71
2022/05/16 10:05:26;;;;;;;;;;;;;;;24.40;44.78;96621.28;4880966;29;20356;-71
2022/05/16 10:07:59;;;;;;;;;;;;;;;24.47;44.53;96618.97;4890102;29;20333;-71
2022/05/16 10:10:28;;;;;;;;;;;;;;;24.49;45.34;96629.44;4885058;29;19957;-71
2022/05/16 10:12:54;;;;;;;;;;;;;;;24.39;44.99;96626.94;4890429;29;19955;-71
2022/05/16 10:15:20;;;;;;;;;;;;;;;24.22;45.03;96616.88;4876481;29;19958;-71
2022/05/16 10:17:48;;;;;;;;;;;;;;;24.04;45.63;96623.94;4870844;29;20424;-71
2022/05/16 10:20:22;;;;;;;;;;;;;;;23.87;45.50;96630.69;4888868;29;20320;-71
2022/05/16 10:22:50;;;;;;;;;;;;;;;23.66;45.64;96640.97;4879332;29;20065;-71
2022/05/16 10:25:19;;;;;;;;;;;;;;;23.46;46.03;96639.50;4880000;29;20340;-71
2022/05/16 10:27:45;;;;;;;;;;;;;;;23.29;46.03;96640.06;4879606;29;19956;-71
2022/05/16 10:30:20;;;;;;;;;;;;;;;23.11;46.60;96643.59;4874538;29;21769;-71
2022/05/16 10:35:40;;;;;;;;;;;;;;;22.78;46.07;96640.88;4873126;29;20033;-71
2022/05/16 10:38:21;;;;;;;;;;;;;;;22.70;47.13;96655.72;4879677;29;19956;-71
2022/05/16 10:40:51;;;;;;;;;;;;;;;22.61;47.72;96665.47;4870624;29;19961;-71
2022/05/16 10:43:29;;;;;;;;;;;;;;;22.52;47.89;96669.09;4875058;29;19977;-71
2022/05/16 10:46:01;;;;;;;;;;;;;;;22.40;47.70;96674.84;4879662;29;19952;-71
2022/05/16 10:48:45;;;;;;;;;;;;;;;22.27;48.32;96681.72;4879679;29;19960;-71
2022/05/16 10:51:17;;;;;;;;;;;;;;;22.11;48.76;96686.41;4879453;29;20439;-71
2022/05/16 10:54:02;;;;;;;;;;;;;;;21.95;49.24;96711.72;4879452;29;19965;-71
2022/05/16 10:56:41;;;;;;;;;;;;;;;21.79;49.19;96708.41;4871068;29;19977;-71
2022/05/16 10:59:10;;;;;;;;;;;;;;;21.61;49.77;96715.28;4879411;29;19963;-71
2022/05/16 11:01:46;;;;;;;;;;;;;;;21.44;49.59;96723.69;4879243;29;19956;-71
2022/05/16 11:04:31;;;;;;;;;;;;;;;21.26;49.91;96752.63;4879198;29;19954;-71
2022/05/16 11:07:02;;;;;;;;;;;;;;;21.09;50.61;96760.22;4879319;29;19962;-71
2022/05/16 11:09:28;;;;;;;;;;;;;;;20.91;49.42;96763.56;4876316;29;19962;-71
2022/05/16 11:12:16;;;;;;;;;;;;;;;20.72;49.30;96774.06;4879372;29;19989;-71
2022/05/16 11:14:54;;;;;;;;;;;;;;;20.43;50.08;96783.50;4869814;29;20304;-70
2022/05/16 11:17:23;;;;;;;;;;;;;;;20.27;51.07;96797.94;4882535;29;19963;-71
2022/05/16 11:20:09;;;;;;;;;;;;;;;20.13;51.20;96799.56;4882548;29;20335;-71
2022/05/16 11:22:37;;;;;;;;;;;;;;;19.94;51.89;96816.09;4882743;29;19999;-71
2022/05/16 11:25:13;;;;;;;;;;;;;;;19.74;53.29;96813.44;4875154;29;19968;-70
2022/05/16 11:28:00;;;;;;;;;;;;;;;19.60;53.96;96802.53;4890836;29;19955;-71
2022/05/16 11:30:43;;;;;;;;;;;;;;;19.45;55.92;96790.84;4870254;29;19963;-70
2022/05/16 11:33:18;;;;;;;;;;;;;;;19.31;58.62;96810.25;4888818;29;20749;-71
2022/05/16 11:35:45;;;;;;;;;;;;;;;19.11;59.94;96795.06;4893476;29;19957;-71
2022/05/16 11:38:13;;;;;;;;;;;;;;;18.96;61.24;96809.13;4891904;29;19954;-70
2022/05/16 11:40:58;;;;;;;;;;;;;;;18.84;61.60;96788.91;4886078;29;19987;-71
2022/05/16 11:43:28;;;;;;;;;;;;;;;18.76;64.81;96796.56;4890153;29;19972;-71
2022/05/16 11:46:07;;;;;;;;;;;;;;;18.69;65.45;96780.06;4892803;29;19981;-71
2022/05/16 11:48:51;;;;;;;;;;;;;;;18.56;62.62;96737.00;4891539;29;19972;-71
2022/05/16 11:51:37;;;;;;;;;;;;;;;18.47;67.12;96751.84;4883221;29;19975;-71
2022/05/16 11:54:04;;;;;;;;;;;;;;;18.50;66.50;96751.31;4898665;29;19957;-71
2022/05/16 12:02:34;;;;;;;;;;;;;;;18.15;66.86;96762.59;4886726;29;19962;-72
2022/05/16 12:05:00;;;;;;;;;;;;;;;18.14;68.00;96747.72;4891238;29;19962;-72
2022/05/16 12:07:46;;;;;;;;;;;;;;;18.17;68.03;96761.28;4880200;29;19965;-72
2022/05/16 12:10:14;;;;;;;;;;;;;;;18.32;68.73;96781.00;4885367;29;19960;-72
2022/05/16 12:12:42;;;;;;;;;;;;;;;18.45;69.23;96789.25;4875502;29;19963;-72
2022/05/16 12:15:17;;;;;;;;;;;;;;;18.59;68.80;96786.16;4893945;29;19968;-75
2022/05/16 12:18:02;;;;;;;;;;;;;;;18.70;69.21;96771.81;4888508;29;20408;-72
2022/05/16 12:21:00;;;;;;;;;;;;;;;18.83;68.47;96765.25;4884384;29;19963;-72
2022/05/16 12:23:44;;;;;;;;;;;;;;;18.96;69.37;96770.06;4869767;29;19974;-72
2022/05/16 12:26:11;;;;;;;;;;;;;;;19.09;68.73;96762.63;4875630;29;20030;-72
2022/05/16 12:28:37;;;;;;;;;;;;;;;19.20;68.49;96765.03;4877982;29;19961;-72
2022/05/16 12:31:05;;;;;;;;;;;;;;;19.16;65.11;96734.72;4881243;29;19965;-73
2022/05/16 12:33:32;;;;;;;;;;;;;;;19.00;67.34;96749.06;4880529;29;19958;-72
2022/05/16 12:35:58;;;;;;;;;;;;;;;19.02;69.75;96758.38;4879626;29;19965;-72
2022/05/16 12:38:27;;;;;;;;;;;;;;;19.01;68.20;96750.66;4879463;29;19958;-72
2022/05/16 12:40:56;;;;;;;;;;;;;;;18.99;68.36;96750.13;4877439;29;19978;-72
2022/05/16 12:43:40;;;;;;;;;;;;;;;19.03;70.96;96759.19;4879145;29;19986;-72
2022/05/16 12:46:18;;;;;;;;;;;;;;;19.12;71.73;96751.47;4880413;29;20334;-72
2022/05/16 12:48:53;;;;;;;;;;;;;;;19.19;71.08;96742.19;4879101;29;19961;-74
2022/05/16 12:51:37;;;;;;;;;;;;;;;19.29;70.01;96746.69;4874514;29;19965;-72
2022/05/16 12:54:03;;;;;;;;;;;;;;;19.42;71.07;96746.16;4869719;29;19971;-72
2022/05/16 12:56:41;;;;;;;;;;;;;;;19.51;68.98;96729.63;4875788;29;19969;-72
2022/05/16 12:59:21;;;;;;;;;;;;;;;19.48;71.58;96750.38;4876715;29;19960;-72
2022/05/16 13:01:49;;;;;;;;;;;;;;;19.50;71.90;96754.66;4879700;29;19970;-72
2022/05/16 13:04:34;;;;;;;;;;;;;;;19.45;71.92;96755.47;4880692;29;19978;-72
2022/05/16 13:07:17;;;;;;;;;;;;;;;19.47;73.20;96756.78;4874031;29;19961;-72
2022/05/16 13:09:43;;;;;;;;;;;;;;;19.56;71.33;96751.72;4876343;29;19952;-72
2022/05/16 13:12:15;;;;;;;;;;;;;;;19.72;72.32;96749.06;4879523;29;20512;-72
2022/05/16 13:14:56;;;;;;;;;;;;;;;19.80;70.19;96735.22;4874916;29;19966;-72
2022/05/16 13:17:30;;;;;;;;;;;;;;;19.91;70.56;96739.47;4878036;29;19977;-72
2022/05/16 13:19:56;;;;;;;;;;;;;;;19.99;71.28;96736.25;4880762;29;19957;-72
2022/05/16 13:22:23;;;;;;;;;;;;;;;19.94;69.58;96736.25;4886261;29;20436;-72
2022/05/16 13:24:53;;;;;;;;;;;;;;;19.97;70.06;96749.03;4890566;29;19973;-71
2022/05/16 13:30:07;;;;;;;;;;;;;;;20.17;68.71;96745.50;4886348;29;19956;-75
2022/05/16 13:32:34;;;;;;;;;;;;;;;20.34;68.88;96747.81;4880416;29;19975;-72
2022/05/16 13:35:02;;;;;;;;;;;;;;;20.46;67.91;96732.31;4889286;29;19958;-71
2022/05/16 13:37:29;;;;;;;;;;;;;;;20.72;66.66;96715.41;4894079;29;19953;-76